Nearby METAR Reports

 

KPVU - Provo Muni, Utah, USA
Distance from station: S 9mi, 15km
Updated: Wed, 19-Jan-2022 8:56pm MST
Mist, Clear
Mist, Clear
 Wind from N
Wind: N 7 mph , 11 km/h
Temperature: 30°F , -1°C
Wind Chill: 23°F , -5°C
Dew Point: 27°F , -3°C
Humidity: 86%
Barometer: 30.36 inHg , 1028.1 hPa
Summary: Mist
Clouds: Clear
Visibility: 5 miles , 8 km
2022/01/20 03:56 KPVU 200356Z 35006KT 5SM BR CLR M01/M03 A3036 RMK AO2 SLP308 T10061028
K36U - Heber/Russ Mcdon, Utah, USA
Distance from station: ENE 17mi, 27km
Updated: Wed, 11-Oct-2017 6:50pm MDT
NOT Current
Clear
Clear
 Wind from SSW
Wind: SSW 10 mph , 17 km/h, Gust: 18 mph , 30 km/h
Temperature: 63°F , 17°C
Dew Point: 16°F , -9°C
Humidity: 16%
Barometer: 29.87 inHg , 1011.5 hPa
Clouds: Clear
Visibility: 10 miles , 16 km
2017/10/12 00:50 K36U 120050Z AUTO 21009G16KT 10SM CLR 17/M09 A2987 RMK AO2
 
KSLC - Salt Lake City, Utah, USA
Distance from station: NNW 33mi, 53km
Updated: Wed, 19-Jan-2022 8:54pm MST
Mist, Few clouds
Mist, Few clouds
 Wind from calm
Wind: Calm
Temperature: 28°F , -2°C
Dew Point: 25°F , -4°C
Humidity: 86%
Barometer: 30.36 inHg , 1028.1 hPa
Summary: Mist
Clouds: Few Clouds
Visibility: 4 miles , 6 km
Cloud details: Few Clouds 7000 ft
Few Clouds 10000 ft
2022/01/20 03:54 KSLC 200354Z 00000KT 4SM BR FEW070 FEW100 M02/M04 A3036 RMK AO2 SLP302 T10171039